Time,TemperatureF,DewpointF,PressureIn,WindDirection,WindDirectionDegrees,WindSpeedMPH,WindSpeedGustMPH,Humidity,HourlyPrecipIn,Conditions,Clouds,dailyrainin,SoftwareType,DateUTC
2013-03-08 00:00:00,38.0,30.0,30.16,North,349,3.0,11.0,72,0.00,,,0.05,weatherlink.com 1.10,2013-03-08 05:00:00,
2013-03-08 00:15:00,38.0,30.0,30.17,NW,307,5.0,12.0,72,0.00,,,0.00,weatherlink.com 1.10,2013-03-08 05:15:00,
2013-03-08 00:30:00,37.9,30.0,30.17,WNW,290,6.0,11.0,72,0.00,,,0.00,weatherlink.com 1.10,2013-03-08 05:30:00,
2013-03-08 00:45:00,37.5,29.0,30.16,NW,319,8.0,11.0,72,0.00,,,0.00,weatherlink.com 1.10,2013-03-08 05:45:00,
2013-03-08 01:00:00,37.3,29.0,30.17,NW,313,4.0,12.0,72,0.00,,,0.00,weatherlink.com 1.10,2013-03-08 06:00:00,
2013-03-08 01:15:00,37.2,29.0,30.17,NW,304,10.0,12.0,72,0.00,,,0.00,weatherlink.com 1.10,2013-03-08 06:15:00,
2013-03-08 01:30:00,37.0,28.0,30.17,NNE,15,5.0,11.0,71,0.00,,,0.00,weatherlink.com 1.10,2013-03-08 06:30:00,
2013-03-08 01:45:00,36.8,29.0,30.17,NW,311,9.0,11.0,72,0.00,,,0.00,weatherlink.com 1.10,2013-03-08 06:45:00,
2013-03-08 02:00:00,36.6,28.0,30.17,WNW,285,5.0,10.0,72,0.00,,,0.00,weatherlink.com 1.10,2013-03-08 07:00:00,
2013-03-08 02:15:00,36.5,28.0,30.17,WNW,296,3.0,11.0,72,0.00,,,0.00,weatherlink.com 1.10,2013-03-08 07:15:00,
2013-03-08 02:30:00,36.7,28.0,30.16,NNE,18,5.0,15.0,71,0.00,,,0.00,weatherlink.com 1.10,2013-03-08 07:30:00,
2013-03-08 02:45:00,36.6,28.0,30.16,North,355,5.0,10.0,71,0.00,,,0.00,weatherlink.com 1.10,2013-03-08 07:45:00,
2013-03-08 03:00:00,36.6,28.0,30.15,NW,325,5.0,12.0,72,0.00,,,0.00,weatherlink.com 1.10,2013-03-08 08:00:00,
2013-03-08 03:16:00,36.4,28.0,30.15,NNW,335,3.0,10.0,72,0.00,,,0.00,weatherlink.com 1.10,2013-03-08 08:16:00,
2013-03-08 03:31:00,36.4,29.0,30.15,WNW,303,4.0,9.0,73,0.00,,,0.00,weatherlink.com 1.10,2013-03-08 08:31:00,
2013-03-08 03:46:00,36.6,28.0,30.15,WNW,292,5.0,11.0,72,0.00,,,0.00,weatherlink.com 1.10,2013-03-08 08:46:00,
2013-03-08 04:01:00,36.9,29.0,30.15,West,272,4.0,13.0,72,0.00,,,0.00,weatherlink.com 1.10,2013-03-08 09:01:00,
2013-03-08 04:16:00,36.8,28.0,30.15,NW,319,7.0,13.0,71,0.00,,,0.00,weatherlink.com 1.10,2013-03-08 09:16:00,
2013-03-08 04:31:00,36.8,28.0,30.15,WNW,288,8.0,15.0,71,0.00,,,0.00,weatherlink.com 1.10,2013-03-08 09:31:00,
2013-03-08 04:46:00,36.6,28.0,30.16,NW,319,3.0,13.0,70,0.00,,,0.00,weatherlink.com 1.10,2013-03-08 09:46:00,
2013-03-08 05:01:00,36.4,27.0,30.16,WNW,300,10.0,17.0,70,0.00,,,0.00,weatherlink.com 1.10,2013-03-08 10:01:00,
2013-03-08 05:16:00,36.6,27.0,30.16,NNW,345,10.0,13.0,69,0.00,,,0.00,weatherlink.com 1.10,2013-03-08 10:16:00,
2013-03-08 05:31:00,36.4,27.0,30.16,WNW,286,3.0,13.0,70,0.00,,,0.00,weatherlink.com 1.10,2013-03-08 10:31:00,
2013-03-08 05:46:00,36.4,27.0,30.16,NW,325,4.0,14.0,69,0.00,,,0.00,weatherlink.com 1.10,2013-03-08 10:46:00,
2013-03-08 06:01:00,36.5,27.0,30.16,NW,304,11.0,15.0,69,0.00,,,0.00,weatherlink.com 1.10,2013-03-08 11:01:00,
2013-03-08 06:16:00,36.7,27.0,30.16,NW,313,14.0,14.0,68,0.00,,,0.00,weatherlink.com 1.10,2013-03-08 11:16:00,
2013-03-08 06:31:00,36.6,27.0,30.16,NNW,336,8.0,13.0,68,0.00,,,0.00,weatherlink.com 1.10,2013-03-08 11:31:00,
2013-03-08 06:46:00,36.6,27.0,30.17,North,5,4.0,10.0,69,0.00,,,0.00,weatherlink.com 1.10,2013-03-08 11:46:00,
2013-03-08 07:02:00,36.8,27.0,30.17,NNW,333,5.0,12.0,69,0.00,,,0.00,weatherlink.com 1.10,2013-03-08 12:02:00,
2013-03-08 07:16:00,36.9,28.0,30.18,NNW,344,8.0,15.0,69,0.00,,,0.00,weatherlink.com 1.10,2013-03-08 12:16:00,
2013-03-08 07:31:00,36.9,28.0,30.18,WNW,287,9.0,18.0,69,0.00,,,0.00,weatherlink.com 1.10,2013-03-08 12:31:00,
2013-03-08 07:46:00,37.1,28.0,30.17,NW,326,5.0,15.0,69,0.00,,,0.00,weatherlink.com 1.10,2013-03-08 12:46:00,
2013-03-08 08:01:00,37.6,27.0,30.18,NNW,340,7.0,23.0,67,0.00,,,0.00,weatherlink.com 1.10,2013-03-08 13:01:00,
2013-03-08 08:16:00,37.1,28.0,30.18,North,350,7.0,19.0,69,0.00,,,0.00,weatherlink.com 1.10,2013-03-08 13:16:00,
2013-03-08 08:31:00,37.2,28.0,30.19,NNE,16,4.0,20.0,69,0.00,,,0.00,weatherlink.com 1.10,2013-03-08 13:31:00,
2013-03-08 08:46:00,37.3,28.0,30.19,NNW,340,11.0,22.0,69,0.00,,,0.00,weatherlink.com 1.10,2013-03-08 13:46:00,
2013-03-08 09:01:00,37.3,28.0,30.18,NNW,331,14.0,18.0,69,0.00,,,0.00,weatherlink.com 1.10,2013-03-08 14:01:00,
2013-03-08 09:16:00,37.7,28.0,30.19,NNW,347,8.0,18.0,67,0.00,,,0.00,weatherlink.com 1.10,2013-03-08 14:16:00,
2013-03-08 09:31:00,38.1,28.0,30.18,North,11,11.0,22.0,67,0.00,,,0.00,weatherlink.com 1.10,2013-03-08 14:31:00,
2013-03-08 09:46:00,38.8,28.0,30.19,North,11,13.0,15.0,65,0.00,,,0.00,weatherlink.com 1.10,2013-03-08 14:46:00,
2013-03-08 10:01:00,38.6,26.0,30.19,NW,322,9.0,27.0,62,0.00,,,0.00,weatherlink.com 1.10,2013-03-08 15:01:00,
2013-03-08 10:16:00,38.5,27.0,30.19,West,273,9.0,25.0,63,0.00,,,0.00,weatherlink.com 1.10,2013-03-08 15:16:00,
2013-03-08 10:31:00,39.9,28.0,30.19,WNW,288,8.0,22.0,62,0.00,,,0.00,weatherlink.com 1.10,2013-03-08 15:31:00,
2013-03-08 10:46:00,40.0,27.0,30.19,North,360,19.0,21.0,61,0.00,,,0.00,weatherlink.com 1.10,2013-03-08 15:46:00,
2013-03-08 11:01:00,39.8,27.0,30.19,NW,325,9.0,28.0,60,0.00,,,0.00,weatherlink.com 1.10,2013-03-08 16:01:00,
2013-03-08 11:16:00,40.6,26.0,30.19,NNE,15,8.0,27.0,57,0.00,,,0.00,weatherlink.com 1.10,2013-03-08 16:16:00,
2013-03-08 11:31:00,41.7,26.0,30.19,NNW,335,7.0,22.0,54,0.00,,,0.00,weatherlink.com 1.10,2013-03-08 16:31:00,
2013-03-08 11:46:00,41.7,26.0,30.18,NNE,17,11.0,24.0,54,0.00,,,0.00,weatherlink.com 1.10,2013-03-08 16:46:00,
2013-03-08 12:01:00,42.3,26.0,30.18,NNW,340,6.0,22.0,52,0.00,,,0.00,weatherlink.com 1.10,2013-03-08 17:01:00,
2013-03-08 12:17:00,42.8,26.0,30.18,NNE,15,9.0,19.0,51,0.00,,,0.00,weatherlink.com 1.10,2013-03-08 17:17:00,
2013-03-08 12:47:00,43.9,26.0,30.16,NNW,347,10.0,21.0,50,0.00,,,0.00,weatherlink.com 1.10,2013-03-08 17:47:00,
2013-03-08 13:02:00,45.0,26.0,30.15,NW,324,11.0,18.0,48,0.00,,,0.00,weatherlink.com 1.10,2013-03-08 18:02:00,
2013-03-08 13:17:00,44.8,27.0,30.15,NW,325,8.0,20.0,49,0.00,,,0.00,weatherlink.com 1.10,2013-03-08 18:17:00,
2013-03-08 13:32:00,45.1,27.0,30.15,North,360,13.0,20.0,50,0.00,,,0.00,weatherlink.com 1.10,2013-03-08 18:32:00,
2013-03-08 13:47:00,45.3,27.0,30.15,NE,55,10.0,26.0,50,0.00,,,0.00,weatherlink.com 1.10,2013-03-08 18:47:00,
2013-03-08 14:02:00,45.6,27.0,30.15,West,259,14.0,20.0,49,0.00,,,0.00,weatherlink.com 1.10,2013-03-08 19:02:00,
2013-03-08 14:17:00,44.7,27.0,30.15,NNW,336,7.0,20.0,50,0.00,,,0.00,weatherlink.com 1.10,2013-03-08 19:17:00,
2013-03-08 14:32:00,45.2,27.0,30.15,North,360,5.0,22.0,50,0.00,,,0.00,weatherlink.com 1.10,2013-03-08 19:32:00,
2013-03-08 14:47:00,45.3,27.0,30.16,North,350,12.0,21.0,50,0.00,,,0.00,weatherlink.com 1.10,2013-03-08 19:47:00,
2013-03-08 15:02:00,45.4,28.0,30.16,NW,321,4.0,16.0,51,0.00,,,0.00,weatherlink.com 1.10,2013-03-08 20:02:00,
2013-03-08 15:17:00,46.9,28.0,30.16,North,355,5.0,17.0,49,0.00,,,0.00,weatherlink.com 1.10,2013-03-08 20:17:00,
2013-03-08 15:32:00,48.2,29.0,30.16,North,350,11.0,16.0,47,0.00,,,0.00,weatherlink.com 1.10,2013-03-08 20:32:00,
2013-03-08 15:47:00,47.8,29.0,30.17,NW,326,3.0,17.0,48,0.00,,,0.00,weatherlink.com 1.10,2013-03-08 20:47:00,
2013-03-08 16:02:00,47.4,28.0,30.17,NE,36,9.0,23.0,48,0.00,,,0.00,weatherlink.com 1.10,2013-03-08 21:02:00,
2013-03-08 16:17:00,47.0,28.0,30.18,NW,322,5.0,24.0,48,0.00,,,0.00,weatherlink.com 1.10,2013-03-08 21:17:00,
2013-03-08 16:32:00,47.1,28.0,30.18,North,9,6.0,23.0,48,0.00,,,0.00,weatherlink.com 1.10,2013-03-08 21:32:00,
2013-03-08 16:47:00,46.7,28.0,30.18,NNE,19,8.0,20.0,49,0.00,,,0.00,weatherlink.com 1.10,2013-03-08 21:47:00,
2013-03-08 17:02:00,46.9,28.0,30.19,North,355,9.0,19.0,49,0.00,,,0.00,weatherlink.com 1.10,2013-03-08 22:02:00,
2013-03-08 17:17:00,47.0,29.0,30.20,North,350,4.0,18.0,49,0.00,,,0.00,weatherlink.com 1.10,2013-03-08 22:17:00,
2013-03-08 17:32:00,47.8,29.0,30.21,NNE,23,7.0,15.0,48,0.00,,,0.00,weatherlink.com 1.10,2013-03-08 22:32:00,
2013-03-08 17:47:00,47.4,29.0,30.21,NW,309,6.0,16.0,49,0.00,,,0.00,weatherlink.com 1.10,2013-03-08 22:47:00,
2013-03-08 18:02:00,47.0,29.0,30.22,NNE,13,3.0,11.0,50,0.00,,,0.00,weatherlink.com 1.10,2013-03-08 23:02:00,
2013-03-08 18:17:00,46.7,29.0,30.23,North,355,6.0,21.0,51,0.00,,,0.00,weatherlink.com 1.10,2013-03-08 23:17:00,
2013-03-08 18:32:00,46.6,29.0,30.23,NNE,20,5.0,21.0,51,0.00,,,0.00,weatherlink.com 1.10,2013-03-08 23:32:00,
2013-03-08 18:47:00,46.4,29.0,30.23,NNE,16,2.0,13.0,51,0.00,,,0.00,weatherlink.com 1.10,2013-03-08 23:47:00,
2013-03-08 19:02:00,46.3,29.0,30.24,North,11,6.0,16.0,51,0.00,,,0.00,weatherlink.com 1.10,2013-03-09 00:02:00,
2013-03-08 19:17:00,46.2,29.0,30.24,NE,36,5.0,13.0,52,0.00,,,0.00,weatherlink.com 1.10,2013-03-09 00:17:00,
2013-03-08 19:32:00,46.1,29.0,30.25,North,355,12.0,12.0,51,0.00,,,0.00,weatherlink.com 1.10,2013-03-09 00:32:00,
2013-03-08 19:47:00,46.0,29.0,30.26,NW,306,6.0,11.0,52,0.00,,,0.00,weatherlink.com 1.10,2013-03-09 00:47:00,
2013-03-08 20:02:00,46.0,29.0,30.26,NW,321,15.0,19.0,51,0.00,,,0.00,weatherlink.com 1.10,2013-03-09 01:02:00,
2013-03-08 20:17:00,45.9,29.0,30.26,NE,46,9.0,15.0,51,0.00,,,0.00,weatherlink.com 1.10,2013-03-09 01:17:00,
2013-03-08 20:32:00,45.8,29.0,30.27,NNW,336,3.0,11.0,52,0.00,,,0.00,weatherlink.com 1.10,2013-03-09 01:32:00,
2013-03-08 20:47:00,45.2,29.0,30.27,NNW,339,4.0,10.0,54,0.00,,,0.00,weatherlink.com 1.10,2013-03-09 01:47:00,
2013-03-08 21:02:00,44.8,29.0,30.27,NNW,329,4.0,13.0,54,0.00,,,0.00,weatherlink.com 1.10,2013-03-09 02:02:00,
2013-03-08 21:17:00,44.8,28.0,30.27,NW,317,3.0,12.0,53,0.00,,,0.00,weatherlink.com 1.10,2013-03-09 02:17:00,
2013-03-08 21:32:00,44.7,28.0,30.27,NW,312,9.0,15.0,53,0.00,,,0.00,weatherlink.com 1.10,2013-03-09 02:32:00,
2013-03-08 21:47:00,44.5,28.0,30.28,NW,319,8.0,16.0,52,0.00,,,0.00,weatherlink.com 1.10,2013-03-09 02:47:00,
2013-03-08 22:02:00,44.0,28.0,30.28,NW,326,6.0,9.0,53,0.00,,,0.00,weatherlink.com 1.10,2013-03-09 03:02:00,
2013-03-08 22:19:00,43.4,28.0,30.28,WNW,298,5.0,12.0,55,0.00,,,0.00,weatherlink.com 1.10,2013-03-09 03:19:00,
2013-03-08 22:32:00,42.5,28.0,30.27,North,350,3.0,15.0,58,0.00,,,0.00,weatherlink.com 1.10,2013-03-09 03:32:00,
2013-03-08 22:47:00,41.9,28.0,30.28,NW,322,6.0,12.0,59,0.00,,,0.00,weatherlink.com 1.10,2013-03-09 03:47:00,
2013-03-08 23:02:00,41.4,29.0,30.28,NE,34,6.0,13.0,61,0.00,,,0.00,weatherlink.com 1.10,2013-03-09 04:02:00,
2013-03-08 23:17:00,40.9,29.0,30.28,WNW,297,8.0,11.0,62,0.00,,,0.00,weatherlink.com 1.10,2013-03-09 04:17:00,
2013-03-08 23:32:00,40.4,29.0,30.27,NNW,330,10.0,10.0,63,0.00,,,0.00,weatherlink.com 1.10,2013-03-09 04:32:00,
2013-03-08 23:47:00,40.1,29.0,30.27,North,5,4.0,10.0,64,0.00,,,0.00,weatherlink.com 1.10,2013-03-09 04:47:00,